sensor_id;sensor_type;location;lat;lon;timestamp;P1;durP1;ratioP1;P2;durP2;ratioP2
16967;SDS011;64862;54.398;10.126;2024-03-29T00:04:31;10.65;;;5.00;;
16967;SDS011;64862;54.398;10.126;2024-03-29T00:14:34;8.98;;;4.50;;
16967;SDS011;64862;54.398;10.126;2024-03-29T00:24:35;8.13;;;4.03;;
16967;SDS011;64862;54.398;10.126;2024-03-29T00:34:37;13.15;;;3.53;;
16967;SDS011;64862;54.398;10.126;2024-03-29T00:44:38;8.90;;;3.47;;
16967;SDS011;64862;54.398;10.126;2024-03-29T00:54:40;5.55;;;3.20;;
16967;SDS011;64862;54.398;10.126;2024-03-29T01:04:41;6.57;;;2.90;;
16967;SDS011;64862;54.398;10.126;2024-03-29T01:14:44;4.10;;;2.35;;
16967;SDS011;64862;54.398;10.126;2024-03-29T01:24:45;5.40;;;2.38;;
16967;SDS011;64862;54.398;10.126;2024-03-29T01:34:47;7.18;;;2.10;;
16967;SDS011;64862;54.398;10.126;2024-03-29T01:44:48;4.93;;;1.85;;
16967;SDS011;64862;54.398;10.126;2024-03-29T01:54:52;7.45;;;1.83;;
16967;SDS011;64862;54.398;10.126;2024-03-29T02:04:54;5.35;;;1.83;;
16967;SDS011;64862;54.398;10.126;2024-03-29T02:14:58;5.15;;;1.90;;
16967;SDS011;64862;54.398;10.126;2024-03-29T02:25:04;8.20;;;2.28;;
16967;SDS011;64862;54.398;10.126;2024-03-29T02:35:07;7.00;;;2.00;;
16967;SDS011;64862;54.398;10.126;2024-03-29T02:45:10;10.50;;;2.00;;
16967;SDS011;64862;54.398;10.126;2024-03-29T02:55:12;4.28;;;1.95;;
16967;SDS011;64862;54.398;10.126;2024-03-29T03:05:16;10.18;;;1.70;;
16967;SDS011;64862;54.398;10.126;2024-03-29T03:15:18;8.70;;;1.80;;
16967;SDS011;64862;54.398;10.126;2024-03-29T03:25:21;4.53;;;1.20;;
16967;SDS011;64862;54.398;10.126;2024-03-29T03:35:23;7.22;;;1.42;;
16967;SDS011;64862;54.398;10.126;2024-03-29T03:45:26;4.13;;;1.33;;
16967;SDS011;64862;54.398;10.126;2024-03-29T03:55:28;6.18;;;1.35;;
16967;SDS011;64862;54.398;10.126;2024-03-29T04:05:32;4.32;;;1.00;;
16967;SDS011;64862;54.398;10.126;2024-03-29T04:15:34;4.85;;;1.00;;
16967;SDS011;64862;54.398;10.126;2024-03-29T04:25:37;5.40;;;1.00;;
16967;SDS011;64862;54.398;10.126;2024-03-29T04:35:39;4.88;;;0.85;;
16967;SDS011;64862;54.398;10.126;2024-03-29T04:45:42;5.10;;;1.20;;
16967;SDS011;64862;54.398;10.126;2024-03-29T04:55:44;4.55;;;1.17;;
16967;SDS011;64862;54.398;10.126;2024-03-29T05:05:50;6.22;;;1.13;;
16967;SDS011;64862;54.398;10.126;2024-03-29T05:15:52;5.63;;;1.15;;
16967;SDS011;64862;54.398;10.126;2024-03-29T05:25:55;6.05;;;1.40;;
16967;SDS011;64862;54.398;10.126;2024-03-29T05:35:57;6.32;;;1.05;;
16967;SDS011;64862;54.398;10.126;2024-03-29T05:46:01;4.25;;;1.25;;
16967;SDS011;64862;54.398;10.126;2024-03-29T05:56:03;5.32;;;0.98;;
16967;SDS011;64862;54.398;10.126;2024-03-29T06:06:07;5.70;;;1.00;;
16967;SDS011;64862;54.398;10.126;2024-03-29T06:16:12;7.70;;;1.20;;
16967;SDS011;64862;54.398;10.126;2024-03-29T06:36:34;6.30;;;1.50;;
16967;SDS011;64862;54.398;10.126;2024-03-29T06:46:39;7.40;;;1.20;;
16967;SDS011;64862;54.398;10.126;2024-03-29T06:56:41;5.80;;;0.90;;
16967;SDS011;64862;54.398;10.126;2024-03-29T07:06:44;7.05;;;1.00;;
16967;SDS011;64862;54.398;10.126;2024-03-29T07:16:47;7.05;;;1.17;;
16967;SDS011;64862;54.398;10.126;2024-03-29T07:26:51;5.20;;;1.10;;
16967;SDS011;64862;54.398;10.126;2024-03-29T07:36:53;6.25;;;1.08;;
16967;SDS011;64862;54.398;10.126;2024-03-29T07:46:56;5.60;;;0.88;;
16967;SDS011;64862;54.398;10.126;2024-03-29T07:56:58;6.35;;;1.10;;
16967;SDS011;64862;54.398;10.126;2024-03-29T08:07:02;4.05;;;0.63;;
16967;SDS011;64862;54.398;10.126;2024-03-29T08:17:04;6.13;;;0.90;;
16967;SDS011;64862;54.398;10.126;2024-03-29T08:27:10;5.07;;;0.90;;
16967;SDS011;64862;54.398;10.126;2024-03-29T08:37:12;5.28;;;1.13;;
16967;SDS011;64862;54.398;10.126;2024-03-29T08:47:16;4.10;;;0.80;;
16967;SDS011;64862;54.398;10.126;2024-03-29T08:57:18;4.00;;;0.98;;
16967;SDS011;64862;54.398;10.126;2024-03-29T09:07:21;4.90;;;1.10;;
16967;SDS011;64862;54.398;10.126;2024-03-29T09:17:24;5.47;;;1.10;;
16967;SDS011;64862;54.398;10.126;2024-03-29T09:27:28;5.75;;;0.95;;
16967;SDS011;64862;54.398;10.126;2024-03-29T09:37:30;6.47;;;0.90;;
16967;SDS011;64862;54.398;10.126;2024-03-29T09:47:37;5.32;;;0.95;;
16967;SDS011;64862;54.398;10.126;2024-03-29T09:57:40;2.63;;;0.80;;
16967;SDS011;64862;54.398;10.126;2024-03-29T10:07:43;4.97;;;0.80;;
16967;SDS011;64862;54.398;10.126;2024-03-29T10:17:47;6.00;;;1.50;;
16967;SDS011;64862;54.398;10.126;2024-03-29T10:27:51;6.97;;;1.10;;
16967;SDS011;64862;54.398;10.126;2024-03-29T10:37:53;6.78;;;1.10;;
16967;SDS011;64862;54.398;10.126;2024-03-29T10:47:57;6.80;;;1.13;;
16967;SDS011;64862;54.398;10.126;2024-03-29T10:58:00;6.68;;;1.30;;
16967;SDS011;64862;54.398;10.126;2024-03-29T11:08:05;4.93;;;1.00;;
16967;SDS011;64862;54.398;10.126;2024-03-29T11:18:08;6.95;;;1.30;;
16967;SDS011;64862;54.398;10.126;2024-03-29T11:28:14;7.18;;;1.80;;
16967;SDS011;64862;54.398;10.126;2024-03-29T11:38:21;4.05;;;1.10;;
16967;SDS011;64862;54.398;10.126;2024-03-29T11:58:33;4.18;;;0.98;;
16967;SDS011;64862;54.398;10.126;2024-03-29T12:08:38;3.83;;;1.00;;
16967;SDS011;64862;54.398;10.126;2024-03-29T12:18:46;5.43;;;1.00;;
16967;SDS011;64862;54.398;10.126;2024-03-29T12:28:50;3.53;;;0.80;;
16967;SDS011;64862;54.398;10.126;2024-03-29T12:38:54;3.47;;;0.90;;
16967;SDS011;64862;54.398;10.126;2024-03-29T12:49:00;3.35;;;0.98;;
16967;SDS011;64862;54.398;10.126;2024-03-29T12:59:01;3.75;;;0.90;;
16967;SDS011;64862;54.398;10.126;2024-03-29T13:09:05;3.83;;;0.80;;
16967;SDS011;64862;54.398;10.126;2024-03-29T13:19:08;5.03;;;0.82;;
16967;SDS011;64862;54.398;10.126;2024-03-29T13:29:11;2.53;;;0.90;;
16967;SDS011;64862;54.398;10.126;2024-03-29T13:39:15;3.90;;;1.00;;
16967;SDS011;64862;54.398;10.126;2024-03-29T13:49:19;4.85;;;1.10;;
16967;SDS011;64862;54.398;10.126;2024-03-29T13:59:21;4.35;;;1.08;;
16967;SDS011;64862;54.398;10.126;2024-03-29T14:09:24;5.18;;;1.30;;
16967;SDS011;64862;54.398;10.126;2024-03-29T14:19:26;6.15;;;1.20;;
16967;SDS011;64862;54.398;10.126;2024-03-29T14:29:30;4.75;;;1.20;;
16967;SDS011;64862;54.398;10.126;2024-03-29T14:39:32;4.45;;;1.30;;
16967;SDS011;64862;54.398;10.126;2024-03-29T14:49:35;3.25;;;1.20;;
16967;SDS011;64862;54.398;10.126;2024-03-29T14:59:37;10.20;;;1.15;;
16967;SDS011;64862;54.398;10.126;2024-03-29T15:09:41;4.85;;;1.40;;
16967;SDS011;64862;54.398;10.126;2024-03-29T15:19:45;5.53;;;1.48;;
16967;SDS011;64862;54.398;10.126;2024-03-29T15:29:54;5.13;;;1.20;;
16967;SDS011;64862;54.398;10.126;2024-03-29T15:39:56;5.63;;;1.30;;
16967;SDS011;64862;54.398;10.126;2024-03-29T15:49:59;5.15;;;1.48;;
16967;SDS011;64862;54.398;10.126;2024-03-29T16:00:01;4.85;;;1.30;;
16967;SDS011;64862;54.398;10.126;2024-03-29T16:10:13;7.30;;;3.20;;
16967;SDS011;64862;54.398;10.126;2024-03-29T16:20:15;3.83;;;1.42;;
16967;SDS011;64862;54.398;10.126;2024-03-29T16:30:18;4.68;;;1.80;;
16967;SDS011;64862;54.398;10.126;2024-03-29T16:40:20;6.85;;;2.15;;
16967;SDS011;64862;54.398;10.126;2024-03-29T16:50:24;4.50;;;1.67;;
16967;SDS011;64862;54.398;10.126;2024-03-29T17:00:26;4.35;;;1.58;;
16967;SDS011;64862;54.398;10.126;2024-03-29T17:10:29;5.82;;;2.42;;
16967;SDS011;64862;54.398;10.126;2024-03-29T17:20:31;6.57;;;2.30;;
16967;SDS011;64862;54.398;10.126;2024-03-29T17:30:35;6.15;;;2.38;;
16967;SDS011;64862;54.398;10.126;2024-03-29T17:40:37;5.63;;;2.70;;
16967;SDS011;64862;54.398;10.126;2024-03-29T17:50:40;7.75;;;2.70;;
16967;SDS011;64862;54.398;10.126;2024-03-29T18:00:42;7.60;;;2.22;;
16967;SDS011;64862;54.398;10.126;2024-03-29T18:10:45;10.75;;;2.22;;
16967;SDS011;64862;54.398;10.126;2024-03-29T18:20:47;9.13;;;3.00;;
16967;SDS011;64862;54.398;10.126;2024-03-29T18:30:50;8.10;;;2.25;;
16967;SDS011;64862;54.398;10.126;2024-03-29T18:40:52;3.85;;;1.63;;
16967;SDS011;64862;54.398;10.126;2024-03-29T18:50:56;2.78;;;1.42;;
16967;SDS011;64862;54.398;10.126;2024-03-29T19:00:58;4.75;;;1.58;;
16967;SDS011;64862;54.398;10.126;2024-03-29T19:11:02;8.77;;;3.00;;
16967;SDS011;64862;54.398;10.126;2024-03-29T19:21:04;9.10;;;3.20;;
16967;SDS011;64862;54.398;10.126;2024-03-29T19:31:07;9.48;;;3.53;;
16967;SDS011;64862;54.398;10.126;2024-03-29T19:41:10;9.65;;;4.50;;
16967;SDS011;64862;54.398;10.126;2024-03-29T19:51:13;15.50;;;7.55;;
16967;SDS011;64862;54.398;10.126;2024-03-29T20:01:15;18.70;;;10.52;;
16967;SDS011;64862;54.398;10.126;2024-03-29T20:11:18;14.68;;;9.25;;
16967;SDS011;64862;54.398;10.126;2024-03-29T20:21:20;11.00;;;6.53;;
16967;SDS011;64862;54.398;10.126;2024-03-29T20:31:23;13.30;;;6.63;;
16967;SDS011;64862;54.398;10.126;2024-03-29T20:41:25;13.63;;;7.75;;
16967;SDS011;64862;54.398;10.126;2024-03-29T20:51:28;17.02;;;9.45;;
16967;SDS011;64862;54.398;10.126;2024-03-29T21:01:30;22.58;;;13.13;;
16967;SDS011;64862;54.398;10.126;2024-03-29T21:12:03;30.13;;;16.20;;
16967;SDS011;64862;54.398;10.126;2024-03-29T21:22:06;18.17;;;11.25;;
16967;SDS011;64862;54.398;10.126;2024-03-29T21:32:09;20.60;;;10.80;;
16967;SDS011;64862;54.398;10.126;2024-03-29T21:42:11;15.65;;;9.50;;
16967;SDS011;64862;54.398;10.126;2024-03-29T21:52:15;13.75;;;8.48;;
16967;SDS011;64862;54.398;10.126;2024-03-29T22:02:17;13.77;;;8.10;;
16967;SDS011;64862;54.398;10.126;2024-03-29T22:12:21;11.35;;;7.68;;
16967;SDS011;64862;54.398;10.126;2024-03-29T22:22:22;13.32;;;7.60;;
16967;SDS011;64862;54.398;10.126;2024-03-29T22:32:26;14.43;;;8.20;;
16967;SDS011;64862;54.398;10.126;2024-03-29T22:42:28;12.07;;;7.28;;
16967;SDS011;64862;54.398;10.126;2024-03-29T22:52:31;9.88;;;6.80;;
16967;SDS011;64862;54.398;10.126;2024-03-29T23:02:33;15.90;;;7.32;;
16967;SDS011;64862;54.398;10.126;2024-03-29T23:12:36;9.77;;;6.95;;
16967;SDS011;64862;54.398;10.126;2024-03-29T23:22:38;12.63;;;7.55;;
16967;SDS011;64862;54.398;10.126;2024-03-29T23:32:43;11.38;;;7.40;;
16967;SDS011;64862;54.398;10.126;2024-03-29T23:42:45;16.67;;;9.00;;
16967;SDS011;64862;54.398;10.126;2024-03-29T23:52:48;12.25;;;8.55;;
